Archbold, Ohio
Current Conditions -  °F | °C
As of 2:35 PM on Thursday 30 Oct 2014 (Local Time) from KUSE Reporting Station
Overcast Overcast  
Wind Chill: 50°   Ceiling: 3900
Heat Index: 50°   Visibility: 10mi
Dew Point: 36°   Wind: 8mph
Humidity: 58%   Direction: 240°WSW
Pressure: 30.1"   Gusts: NA
Location:  41.52°N, 84.31°W
Report Text: KUSE 301835Z AUTO 24007KT 10SM SCT033 BKN039 OVC047 10/02 A3010 RMK AO2
Loading
Personal Weather Stations






























Interactive Weather Map
Tropical Storm Tracking
New forecast layout! Learn more

10-Day Weather Forecast

Advertisements
Track Severe Weather on mobile